createdAt,value
2022-09-28T00:00:36.933Z,8.70
2022-09-28T00:03:24.469Z,9.05
2022-09-28T00:06:12.009Z,9.18
2022-09-28T00:08:59.550Z,8.85
2022-09-28T00:11:47.099Z,8.71
2022-09-28T00:14:34.635Z,8.92
2022-09-28T00:17:22.192Z,9.04
2022-09-28T00:20:09.730Z,8.85
2022-09-28T00:22:57.369Z,8.66
2022-09-28T00:25:44.917Z,8.93
2022-09-28T00:28:32.473Z,8.88
2022-09-28T00:31:20.080Z,8.99
2022-09-28T00:34:07.710Z,8.50
2022-09-28T00:36:55.238Z,8.97
2022-09-28T00:39:42.813Z,8.62
2022-09-28T00:42:30.341Z,8.67
2022-09-28T00:45:17.899Z,8.61
2022-09-28T00:48:05.438Z,8.59
2022-09-28T00:50:53.071Z,8.72
2022-09-28T00:53:40.597Z,8.63
2022-09-28T00:56:28.162Z,8.73
2022-09-28T00:59:15.714Z,8.65
2022-09-28T01:02:03.382Z,8.71
2022-09-28T01:04:51.006Z,8.61
2022-09-28T01:07:38.663Z,8.59
2022-09-28T01:10:26.207Z,8.69
2022-09-28T01:13:13.842Z,8.90
2022-09-28T01:16:01.448Z,8.58
2022-09-28T01:18:49.071Z,8.48
2022-09-28T01:21:36.601Z,8.45
2022-09-28T01:24:26.149Z,8.61
2022-09-28T01:27:13.688Z,8.44
2022-09-28T01:30:03.215Z,8.31
2022-09-28T01:32:50.764Z,8.33
2022-09-28T01:35:38.293Z,7.95
2022-09-28T01:38:25.837Z,8.05
2022-09-28T01:41:13.406Z,8.02
2022-09-28T01:44:00.942Z,8.01
2022-09-28T01:46:48.507Z,8.19
2022-09-28T01:49:36.057Z,8.10
2022-09-28T01:52:23.580Z,7.82
2022-09-28T01:55:11.140Z,8.00
2022-09-28T01:57:58.688Z,8.00
2022-09-28T02:00:46.256Z,8.15
2022-09-28T02:03:33.847Z,8.18
2022-09-28T02:06:21.393Z,8.04
2022-09-28T02:09:09.052Z,7.88
2022-09-28T02:11:56.868Z,7.90
2022-09-28T02:14:44.518Z,7.82
2022-09-28T02:17:32.049Z,7.89
2022-09-28T02:20:19.612Z,7.68
2022-09-28T02:23:07.152Z,7.72
2022-09-28T02:25:54.700Z,7.94
2022-09-28T02:28:42.345Z,7.92
2022-09-28T02:31:29.917Z,7.74
2022-09-28T02:34:17.526Z,7.79
2022-09-28T02:37:05.059Z,7.68
2022-09-28T02:39:52.617Z,7.66
2022-09-28T02:42:40.157Z,7.86
2022-09-28T02:45:27.745Z,7.70
2022-09-28T02:48:15.299Z,7.63
2022-09-28T02:51:04.870Z,7.57
2022-09-28T02:53:52.414Z,7.80
2022-09-28T02:56:39.970Z,7.99
2022-09-28T02:59:27.534Z,7.94
2022-09-28T03:02:15.109Z,8.03
2022-09-28T03:05:02.728Z,8.01
2022-09-28T03:07:50.273Z,7.95
2022-09-28T03:10:37.823Z,7.94
2022-09-28T03:13:25.359Z,7.99
2022-09-28T03:16:12.975Z,7.78
2022-09-28T03:19:00.534Z,7.61
2022-09-28T03:21:48.198Z,7.90
2022-09-28T03:24:37.749Z,7.93
2022-09-28T03:27:25.317Z,7.88
2022-09-28T03:30:14.859Z,7.90
2022-09-28T03:33:02.437Z,7.90
2022-09-28T03:35:51.986Z,7.95
2022-09-28T03:38:39.560Z,7.90
2022-09-28T03:41:27.126Z,7.92
2022-09-28T03:44:14.701Z,8.24
2022-09-28T03:47:02.247Z,8.11
2022-09-28T03:49:49.800Z,8.14
2022-09-28T03:52:37.362Z,8.19
2022-09-28T03:55:24.927Z,8.42
2022-09-28T03:58:14.473Z,8.34
2022-09-28T04:01:02.071Z,8.34
2022-09-28T04:03:49.660Z,8.41
2022-09-28T04:06:37.235Z,8.31
2022-09-28T04:09:24.779Z,8.34
2022-09-28T04:12:12.353Z,8.46
2022-09-28T04:14:59.910Z,8.36
2022-09-28T04:17:47.473Z,8.22
2022-09-28T04:20:35.015Z,8.68
2022-09-28T04:23:22.669Z,8.64
2022-09-28T04:26:12.198Z,8.53
2022-09-28T04:29:03.984Z,8.79
2022-09-28T04:31:53.866Z,8.63
2022-09-28T04:34:44.091Z,8.89
2022-09-28T04:37:32.051Z,8.91
2022-09-28T04:40:19.646Z,8.97
2022-09-28T04:43:09.215Z,8.98
2022-09-28T04:45:56.845Z,8.76
2022-09-28T04:48:44.454Z,9.04
2022-09-28T04:51:34.104Z,9.01
2022-09-28T04:54:21.647Z,9.40
2022-09-28T04:57:09.198Z,9.32
2022-09-28T04:59:56.782Z,9.19
2022-09-28T05:02:44.422Z,9.43
2022-09-28T05:05:31.965Z,9.42
2022-09-28T05:08:19.534Z,9.43
2022-09-28T05:11:07.069Z,9.80
2022-09-28T05:13:54.631Z,9.62
2022-09-28T05:16:42.246Z,9.69
2022-09-28T05:19:29.918Z,9.98
2022-09-28T05:22:19.438Z,9.81
2022-09-28T05:25:07.017Z,9.75
2022-09-28T05:27:54.598Z,9.92
2022-09-28T05:30:42.131Z,9.90
2022-09-28T05:33:29.673Z,9.97
2022-09-28T05:36:17.255Z,9.85
2022-09-28T05:39:04.789Z,9.84
2022-09-28T05:41:52.364Z,9.95
2022-09-28T05:44:39.912Z,9.74
2022-09-28T05:47:27.458Z,10.16
2022-09-28T05:50:15.010Z,10.10
2022-09-28T05:53:02.579Z,10.06
2022-09-28T05:55:50.133Z,10.07
2022-09-28T05:58:37.777Z,10.30
2022-09-28T06:01:25.383Z,10.38
2022-09-28T06:04:12.959Z,10.18
2022-09-28T06:07:00.530Z,10.17
2022-09-28T06:09:48.107Z,10.35
2022-09-28T06:12:35.652Z,10.38
2022-09-28T06:15:23.209Z,10.57
2022-09-28T06:18:10.736Z,10.45
2022-09-28T06:20:58.399Z,10.65
2022-09-28T06:23:49.408Z,10.71
2022-09-28T06:26:37.205Z,10.41
2022-09-28T06:29:24.731Z,10.76
2022-09-28T06:32:12.282Z,10.49
2022-09-28T06:34:59.811Z,10.62
2022-09-28T06:37:47.852Z,10.71
2022-09-28T06:40:37.475Z,10.74
2022-09-28T06:43:25.061Z,10.87
2022-09-28T06:46:12.717Z,10.86
2022-09-28T06:49:00.331Z,10.56
2022-09-28T06:51:47.881Z,10.74
2022-09-28T06:54:35.425Z,10.67
2022-09-28T06:57:23.086Z,10.71
2022-09-28T07:00:10.624Z,10.73
2022-09-28T07:02:58.156Z,10.76
2022-09-28T07:05:45.686Z,10.80
2022-09-28T07:08:33.238Z,10.97
2022-09-28T07:11:20.784Z,10.95
2022-09-28T07:14:09.375Z,11.08
2022-09-28T07:17:12.580Z,11.22
2022-09-28T07:20:11.705Z,10.89
2022-09-28T07:23:14.516Z,11.02
2022-09-28T07:26:08.571Z,11.13
2022-09-28T07:28:56.452Z,11.01
2022-09-28T07:31:43.995Z,11.19
2022-09-28T07:34:43.608Z,11.32
2022-09-28T07:37:31.168Z,11.45
2022-09-28T07:40:18.794Z,11.26
2022-09-28T07:43:06.365Z,11.47
2022-09-28T07:45:54.047Z,11.19
2022-09-28T07:48:41.700Z,11.14
2022-09-28T07:51:29.239Z,11.47
2022-09-28T07:54:16.761Z,11.08
2022-09-28T07:57:04.307Z,11.35
2022-09-28T07:59:51.890Z,11.41
2022-09-28T08:02:39.503Z,11.37
2022-09-28T08:05:27.094Z,11.40
2022-09-28T08:08:14.720Z,11.45
2022-09-28T08:11:02.268Z,11.66
2022-09-28T08:13:49.832Z,11.62
2022-09-28T08:19:29.905Z,11.61
2022-09-28T08:22:19.415Z,11.51
2022-09-28T08:25:06.988Z,11.62
2022-09-28T08:27:56.529Z,11.73
2022-09-28T08:30:44.154Z,11.50
2022-09-28T08:33:31.741Z,11.65
2022-09-28T08:36:19.315Z,11.58
2022-09-28T08:39:06.856Z,11.67
2022-09-28T08:41:54.415Z,11.62
2022-09-28T08:44:44.916Z,11.51
2022-09-28T08:47:32.506Z,11.57
2022-09-28T08:50:20.056Z,11.66
2022-09-28T08:53:07.913Z,11.49
2022-09-28T08:55:55.477Z,11.47
2022-09-28T08:58:43.075Z,11.81
2022-09-28T09:01:30.700Z,11.75
2022-09-28T09:04:18.409Z,11.66
2022-09-28T09:07:06.102Z,11.73
2022-09-28T09:09:53.640Z,11.96
2022-09-28T09:12:41.228Z,12.05
2022-09-28T09:15:28.817Z,11.93
2022-09-28T09:18:19.820Z,11.89
2022-09-28T09:21:07.753Z,11.73
2022-09-28T09:23:55.326Z,11.81
2022-09-28T09:26:42.873Z,11.94
2022-09-28T09:29:30.420Z,11.78
2022-09-28T09:32:17.959Z,12.03
2022-09-28T09:35:05.496Z,11.63
2022-09-28T09:37:58.344Z,11.83
2022-09-28T09:40:48.239Z,11.86
2022-09-28T09:43:35.821Z,11.94
2022-09-28T09:46:23.423Z,11.90
2022-09-28T09:49:11.028Z,11.81
2022-09-28T09:51:58.561Z,11.98
2022-09-28T09:54:46.115Z,11.90
2022-09-28T09:57:33.652Z,12.20
2022-09-28T10:00:22.327Z,12.04
2022-09-28T10:03:09.860Z,12.10
2022-09-28T10:05:57.410Z,12.02
2022-09-28T10:08:44.944Z,12.11
2022-09-28T10:11:32.495Z,11.92
2022-09-28T10:14:20.033Z,12.00
2022-09-28T10:17:07.653Z,11.85
2022-09-28T10:19:55.215Z,11.87
2022-09-28T10:22:42.769Z,11.80
2022-09-28T10:25:30.309Z,11.96
2022-09-28T10:28:17.859Z,12.00
2022-09-28T10:31:05.587Z,11.79
2022-09-28T10:33:53.218Z,11.69
2022-09-28T10:36:40.741Z,11.65
2022-09-28T10:39:28.309Z,11.81
2022-09-28T10:42:15.842Z,11.74
2022-09-28T10:45:03.380Z,11.79
2022-09-28T10:47:50.920Z,12.32
2022-09-28T10:50:38.480Z,12.17
2022-09-28T10:53:26.008Z,12.34
2022-09-28T10:56:13.572Z,12.61
2022-09-28T10:59:01.113Z,12.40
2022-09-28T11:01:48.794Z,12.46
2022-09-28T11:04:36.363Z,12.44
2022-09-28T11:07:23.925Z,12.61
2022-09-28T11:10:11.481Z,12.62
2022-09-28T11:12:59.089Z,12.50
2022-09-28T11:15:46.649Z,12.69
2022-09-28T11:18:34.288Z,12.85
2022-09-28T11:21:23.809Z,12.91
2022-09-28T11:24:14.400Z,12.94
2022-09-28T11:27:04.284Z,12.50
2022-09-28T11:29:51.813Z,13.15
2022-09-28T11:32:39.452Z,12.89
2022-09-28T11:35:26.967Z,12.45
2022-09-28T11:38:14.515Z,12.28
2022-09-28T11:41:02.078Z,12.64
2022-09-28T11:43:49.653Z,12.54
2022-09-28T11:46:37.190Z,12.26
2022-09-28T11:49:24.716Z,12.13
2022-09-28T11:52:12.245Z,11.88
2022-09-28T11:54:59.821Z,11.79
2022-09-28T11:57:47.357Z,11.89
2022-09-28T12:00:34.905Z,11.90
2022-09-28T12:03:22.586Z,11.96
2022-09-28T12:06:10.275Z,11.92
2022-09-28T12:08:57.806Z,11.99
2022-09-28T12:11:45.363Z,11.91
2022-09-28T12:14:32.905Z,12.25
2022-09-28T12:17:20.597Z,12.17
2022-09-28T12:20:08.205Z,11.55
2022-09-28T12:22:55.868Z,12.08
2022-09-28T12:25:43.394Z,12.05
2022-09-28T12:28:30.961Z,11.84
2022-09-28T12:31:18.562Z,12.34
2022-09-28T12:34:06.186Z,12.40
2022-09-28T12:36:53.738Z,12.24
2022-09-28T12:39:56.881Z,12.42
2022-09-28T12:42:44.878Z,12.81
2022-09-28T12:45:38.712Z,12.42
2022-09-28T12:48:30.749Z,12.51
2022-09-28T12:51:18.326Z,12.68
2022-09-28T12:54:05.872Z,12.73
2022-09-28T12:56:53.431Z,12.41
2022-09-28T12:59:40.966Z,12.56
2022-09-28T13:02:28.592Z,12.72
2022-09-28T13:05:16.213Z,12.51
2022-09-28T13:08:03.767Z,12.80
2022-09-28T13:10:51.572Z,12.58
2022-09-28T13:13:39.192Z,12.64
2022-09-28T13:16:26.810Z,12.64
2022-09-28T13:19:14.460Z,12.72
2022-09-28T13:22:02.085Z,12.35
2022-09-28T13:24:49.639Z,12.29
2022-09-28T13:27:37.249Z,12.64
2022-09-28T13:30:24.831Z,12.87
2022-09-28T13:33:12.407Z,12.43
2022-09-28T13:35:59.949Z,12.60
2022-09-28T13:38:47.521Z,12.39
2022-09-28T13:41:35.073Z,12.37
2022-09-28T13:44:22.642Z,12.28
2022-09-28T13:47:10.177Z,12.18
2022-09-28T13:49:57.791Z,12.34
2022-09-28T13:52:45.418Z,12.37
2022-09-28T13:55:33.025Z,12.09
2022-09-28T13:58:20.625Z,12.31
2022-09-28T14:01:08.280Z,12.12
2022-09-28T14:03:55.871Z,12.23
2022-09-28T14:06:47.484Z,12.12
2022-09-28T14:09:37.067Z,12.13
2022-09-28T14:12:24.624Z,12.15
2022-09-28T14:15:12.188Z,12.17
2022-09-28T14:17:59.761Z,11.78
2022-09-28T14:20:47.294Z,11.82
2022-09-28T14:23:34.849Z,11.95
2022-09-28T14:26:22.393Z,11.60
2022-09-28T14:29:10.294Z,11.67
2022-09-28T14:31:57.872Z,12.00
2022-09-28T14:34:45.429Z,12.17
2022-09-28T14:37:33.011Z,12.23
2022-09-28T14:40:20.634Z,11.88
2022-09-28T14:43:08.211Z,12.15
2022-09-28T14:45:55.913Z,11.93
2022-09-28T14:48:43.473Z,12.16
2022-09-28T14:51:31.056Z,12.09
2022-09-28T14:54:18.632Z,12.09
2022-09-28T14:57:06.238Z,12.41
2022-09-28T14:59:53.781Z,12.33
2022-09-28T15:02:41.331Z,12.50
2022-09-28T15:05:28.986Z,12.34
2022-09-28T15:08:16.636Z,12.24
2022-09-28T15:11:04.173Z,12.45
2022-09-28T15:13:51.729Z,12.28
2022-09-28T15:16:39.270Z,12.25
2022-09-28T15:19:26.843Z,12.36
2022-09-28T15:22:14.405Z,12.23
2022-09-28T15:25:02.893Z,12.33
2022-09-28T15:27:50.661Z,12.32
2022-09-28T15:30:38.295Z,11.98
2022-09-28T15:33:25.880Z,11.87
2022-09-28T15:36:13.443Z,11.91
2022-09-28T15:39:00.977Z,12.10
2022-09-28T15:41:48.545Z,12.16
2022-09-28T15:44:36.092Z,12.14
2022-09-28T15:47:23.651Z,12.27
2022-09-28T15:50:11.198Z,12.11
2022-09-28T15:52:58.730Z,11.99
2022-09-28T15:55:46.273Z,12.02
2022-09-28T15:58:33.866Z,12.06
2022-09-28T16:01:21.429Z,12.38
2022-09-28T16:04:09.081Z,11.97
2022-09-28T16:06:56.636Z,12.02
2022-09-28T16:09:44.186Z,12.37
2022-09-28T16:12:31.753Z,12.28
2022-09-28T16:15:21.304Z,12.35
2022-09-28T16:18:08.831Z,12.18
2022-09-28T16:20:56.367Z,12.55
2022-09-28T16:23:43.916Z,12.11
2022-09-28T16:26:31.452Z,12.49
2022-09-28T16:29:19.072Z,12.53
2022-09-28T16:32:06.681Z,12.85
2022-09-28T16:34:54.237Z,12.33
2022-09-28T16:37:41.804Z,11.03
2022-09-28T16:40:29.372Z,9.79
2022-09-28T16:43:17.069Z,9.57
2022-09-28T16:46:04.644Z,10.26
2022-09-28T16:48:52.240Z,9.26
2022-09-28T16:51:39.751Z,9.12
2022-09-28T16:54:27.302Z,9.38
2022-09-28T16:57:14.843Z,9.27
2022-09-28T17:00:02.404Z,9.39
2022-09-28T17:02:50.005Z,9.35
2022-09-28T17:05:37.563Z,9.71
2022-09-28T17:08:25.116Z,9.98
2022-09-28T17:11:17.024Z,9.71
2022-09-28T17:14:07.885Z,9.67
2022-09-28T17:17:08.117Z,9.68
2022-09-28T17:19:58.108Z,9.57
2022-09-28T17:22:45.646Z,9.47
2022-09-28T17:25:33.195Z,9.57
2022-09-28T17:28:20.712Z,9.42
2022-09-28T17:31:19.785Z,9.37
2022-09-28T17:34:07.367Z,10.46
2022-09-28T17:36:54.930Z,11.01
2022-09-28T17:39:42.462Z,11.31
2022-09-28T17:42:30.008Z,11.60
2022-09-28T17:45:17.550Z,10.93
2022-09-28T17:48:05.099Z,10.74
2022-09-28T17:50:52.633Z,11.04
2022-09-28T17:53:40.194Z,11.09
2022-09-28T17:56:31.925Z,10.29
2022-09-28T17:59:22.075Z,9.76
2022-09-28T18:02:09.669Z,10.09
2022-09-28T18:04:57.656Z,9.58
2022-09-28T18:07:47.604Z,9.63
2022-09-28T18:10:35.443Z,9.63
2022-09-28T18:13:23.119Z,9.72
2022-09-28T18:16:10.713Z,9.74
2022-09-28T18:18:58.409Z,10.05
2022-09-28T18:21:47.916Z,10.97
2022-09-28T18:24:35.466Z,11.45
2022-09-28T18:27:22.992Z,11.67
2022-09-28T18:30:12.556Z,11.28
2022-09-28T18:33:00.083Z,11.25
2022-09-28T18:35:47.635Z,11.45
2022-09-28T18:38:35.176Z,10.63
2022-09-28T18:41:22.693Z,10.40
2022-09-28T18:44:10.238Z,9.74
2022-09-28T18:46:57.785Z,9.81
2022-09-28T18:49:46.813Z,10.00
2022-09-28T18:52:34.488Z,10.84
2022-09-28T18:55:22.034Z,11.47
2022-09-28T18:58:09.592Z,10.54
2022-09-28T19:01:13.504Z,10.26
2022-09-28T19:04:04.625Z,10.35
2022-09-28T19:06:52.167Z,11.13
2022-09-28T19:09:39.725Z,10.83
2022-09-28T19:12:29.251Z,11.31
2022-09-28T19:15:16.780Z,11.76
2022-09-28T19:18:04.313Z,12.17
2022-09-28T19:20:51.949Z,12.29
2022-09-28T19:23:39.488Z,12.62
2022-09-28T19:26:27.058Z,11.98
2022-09-28T19:29:14.674Z,12.53
2022-09-28T19:32:02.320Z,12.63
2022-09-28T19:34:49.856Z,12.59
2022-09-28T19:37:37.409Z,12.60
2022-09-28T19:40:24.956Z,12.21
2022-09-28T19:43:12.519Z,12.93
2022-09-28T19:46:00.237Z,12.88
2022-09-28T19:48:47.793Z,12.96
2022-09-28T19:51:35.426Z,12.70
2022-09-28T19:54:24.932Z,12.52
2022-09-28T19:57:12.478Z,12.29
2022-09-28T20:00:02.701Z,12.41
2022-09-28T20:02:50.995Z,12.24
2022-09-28T20:05:38.565Z,12.37
2022-09-28T20:08:26.092Z,12.58
2022-09-28T20:11:13.674Z,12.96
2022-09-28T20:14:01.205Z,12.88
2022-09-28T20:16:48.759Z,13.18
2022-09-28T20:19:36.283Z,12.94
2022-09-28T20:22:23.846Z,12.74
2022-09-28T20:25:11.384Z,12.61
2022-09-28T20:27:58.929Z,11.97
2022-09-28T20:30:46.535Z,12.10
2022-09-28T20:33:34.101Z,12.18
2022-09-28T20:36:21.623Z,12.24
2022-09-28T20:39:09.173Z,11.82
2022-09-28T20:41:56.726Z,12.27
2022-09-28T20:44:44.268Z,12.05
2022-09-28T20:47:31.805Z,11.54
2022-09-28T20:50:22.024Z,11.98
2022-09-28T20:53:09.642Z,11.86
2022-09-28T20:55:57.188Z,12.07
2022-09-28T20:58:44.717Z,12.00
2022-09-28T21:01:32.392Z,11.91
2022-09-28T21:04:20.059Z,11.73
2022-09-28T21:07:07.859Z,11.84
2022-09-28T21:09:55.402Z,11.69
2022-09-28T21:12:42.955Z,11.38
2022-09-28T21:15:30.547Z,11.33
2022-09-28T21:18:18.130Z,11.33
2022-09-28T21:21:05.667Z,10.94
2022-09-28T21:23:53.215Z,11.11
2022-09-28T21:26:40.754Z,11.16
2022-09-28T21:29:28.299Z,11.34
2022-09-28T21:32:15.829Z,11.52
2022-09-28T21:35:03.461Z,11.73
2022-09-28T21:37:52.993Z,11.72
2022-09-28T21:40:40.558Z,11.41
2022-09-28T21:43:30.093Z,12.06
2022-09-28T21:46:17.771Z,11.86
2022-09-28T21:49:05.364Z,11.61
2022-09-28T21:51:52.901Z,11.60
2022-09-28T21:54:40.432Z,11.13
2022-09-28T21:57:27.965Z,11.37
2022-09-28T22:00:15.551Z,11.23
2022-09-28T22:03:03.125Z,11.58
2022-09-28T22:05:50.694Z,11.83
2022-09-28T22:08:38.253Z,12.11
2022-09-28T22:11:25.817Z,11.99
2022-09-28T22:14:13.373Z,11.67
2022-09-28T22:17:00.921Z,11.82
2022-09-28T22:19:48.448Z,11.68
2022-09-28T22:22:36.006Z,12.24
2022-09-28T22:25:23.554Z,11.91
2022-09-28T22:28:11.200Z,12.34
2022-09-28T22:30:58.771Z,12.41
2022-09-28T22:33:46.360Z,12.53
2022-09-28T22:36:33.871Z,12.14
2022-09-28T22:39:21.530Z,12.35
2022-09-28T22:42:09.068Z,12.12
2022-09-28T22:44:56.624Z,11.93
2022-09-28T22:47:44.154Z,11.41
2022-09-28T22:50:31.695Z,11.58
2022-09-28T22:53:19.239Z,11.57
2022-09-28T22:56:06.786Z,11.26
2022-09-28T22:58:54.328Z,11.56
2022-09-28T23:01:41.891Z,11.62
2022-09-28T23:04:29.514Z,11.72
2022-09-28T23:07:17.086Z,11.54
2022-09-28T23:10:04.623Z,11.86
2022-09-28T23:12:52.178Z,11.85
2022-09-28T23:15:39.729Z,12.24
2022-09-28T23:18:27.331Z,11.97
2022-09-28T23:21:14.883Z,11.92
2022-09-28T23:24:02.420Z,12.06
2022-09-28T23:26:49.967Z,11.45
2022-09-28T23:29:37.493Z,11.45
2022-09-28T23:32:28.559Z,11.80
2022-09-28T23:35:18.738Z,12.03
2022-09-28T23:38:06.283Z,11.97
2022-09-28T23:40:53.855Z,11.11
2022-09-28T23:43:41.465Z,11.36
2022-09-28T23:46:29.059Z,11.72
2022-09-28T23:49:16.719Z,11.74
2022-09-28T23:52:04.274Z,11.53
2022-09-28T23:54:53.850Z,11.32
2022-09-28T23:57:41.400Z,11.50
